createdAt,value
2022-10-11T00:02:11.922Z,8.35
2022-10-11T00:04:56.982Z,9.93
2022-10-11T00:07:42.484Z,6.00
2022-10-11T00:10:27.620Z,6.63
2022-10-11T00:13:12.581Z,6.47
2022-10-11T00:15:58.048Z,5.60
2022-10-11T00:18:42.928Z,12.80
2022-10-11T00:21:27.986Z,10.05
2022-10-11T00:24:13.619Z,8.45
2022-10-11T00:26:58.796Z,4.63
2022-10-11T00:29:43.862Z,5.35
2022-10-11T00:32:29.015Z,8.83
2022-10-11T00:35:14.981Z,4.32
2022-10-11T00:37:59.993Z,6.75
2022-10-11T00:40:45.831Z,3.90
2022-10-11T00:43:32.236Z,10.07
2022-10-11T00:46:26.970Z,6.23
2022-10-11T00:49:25.463Z,16.17
2022-10-11T00:52:32.994Z,8.23
2022-10-11T00:55:20.621Z,14.25
2022-10-11T00:58:06.497Z,8.80
2022-10-11T01:00:52.041Z,6.90
2022-10-11T01:03:38.514Z,7.28
2022-10-11T01:06:23.376Z,13.77
2022-10-11T01:09:09.769Z,4.30
2022-10-11T01:11:57.960Z,9.45
2022-10-11T01:15:07.028Z,4.43
2022-10-11T01:18:03.395Z,7.30
2022-10-11T01:21:01.554Z,9.25
2022-10-11T01:24:07.492Z,7.72
2022-10-11T01:27:18.516Z,8.55
2022-10-11T01:30:07.170Z,5.53
2022-10-11T01:33:29.982Z,9.25
2022-10-11T01:36:31.236Z,5.63
2022-10-11T01:39:23.991Z,10.40
2022-10-11T01:42:12.228Z,8.90
2022-10-11T01:44:59.227Z,10.50
2022-10-11T01:47:45.865Z,9.55
2022-10-11T01:50:45.051Z,12.75
2022-10-11T01:53:48.442Z,5.90
2022-10-11T01:57:14.391Z,7.28
2022-10-11T02:00:12.627Z,10.73
2022-10-11T02:03:07.068Z,7.97
2022-10-11T02:06:03.931Z,6.53
2022-10-11T02:09:08.322Z,17.80
2022-10-11T02:11:57.994Z,5.40
2022-10-11T02:14:46.916Z,9.33
2022-10-11T02:17:37.104Z,9.35
2022-10-11T02:20:25.738Z,8.60
2022-10-11T02:23:15.171Z,10.70
2022-10-11T02:26:04.313Z,10.98
2022-10-11T02:28:51.525Z,8.70
2022-10-11T02:31:37.994Z,8.13
2022-10-11T02:34:40.723Z,7.20
2022-10-11T02:37:58.185Z,9.40
2022-10-11T02:40:47.665Z,6.75
2022-10-11T02:43:36.496Z,4.80
2022-10-11T02:46:22.071Z,7.20
2022-10-11T02:49:08.296Z,9.70
2022-10-11T02:51:55.786Z,8.15
2022-10-11T02:54:41.012Z,7.35
2022-10-11T02:57:25.930Z,10.87
2022-10-11T03:00:11.774Z,9.18
2022-10-11T03:02:56.671Z,7.38
2022-10-11T03:05:42.047Z,7.00
2022-10-11T03:08:27.923Z,11.40
2022-10-11T03:11:12.906Z,5.27
2022-10-11T03:13:58.068Z,11.70
2022-10-11T03:16:43.183Z,14.52
2022-10-11T03:19:28.031Z,12.88
2022-10-11T03:22:13.179Z,8.85
2022-10-11T03:25:03.388Z,11.83
2022-10-11T03:27:48.906Z,10.20
2022-10-11T03:30:34.060Z,9.80
2022-10-11T03:33:18.984Z,12.77
2022-10-11T03:36:04.614Z,8.20
2022-10-11T03:38:49.655Z,9.07
2022-10-11T03:41:34.716Z,8.82
2022-10-11T03:44:19.603Z,10.63
2022-10-11T03:47:05.387Z,11.50
2022-10-11T03:49:50.184Z,9.60
2022-10-11T03:52:36.043Z,6.80
2022-10-11T03:55:21.178Z,14.02
2022-10-11T03:58:06.428Z,9.75
2022-10-11T04:00:52.651Z,8.35
2022-10-11T04:03:37.863Z,11.35
2022-10-11T04:06:23.313Z,11.93
2022-10-11T04:09:08.163Z,12.40
2022-10-11T04:11:53.206Z,11.55
2022-10-11T04:14:38.282Z,12.55
2022-10-11T04:17:23.246Z,12.65
2022-10-11T04:20:08.955Z,12.13
2022-10-11T04:22:53.866Z,11.68
2022-10-11T04:25:39.554Z,11.18
2022-10-11T04:28:24.702Z,10.45
2022-10-11T04:31:09.559Z,10.45
2022-10-11T04:33:54.606Z,7.63
2022-10-11T04:36:39.860Z,8.55
2022-10-11T04:39:24.774Z,12.50
2022-10-11T04:42:10.495Z,13.32
2022-10-11T04:44:55.700Z,10.00
2022-10-11T04:47:41.489Z,13.87
2022-10-11T04:50:26.575Z,8.57
2022-10-11T04:53:11.619Z,9.68
2022-10-11T04:56:02.246Z,13.32
2022-10-11T04:58:53.944Z,8.57
2022-10-11T05:01:39.075Z,7.57
2022-10-11T05:04:23.780Z,7.50
2022-10-11T05:07:08.812Z,8.30
2022-10-11T05:09:54.504Z,7.10
2022-10-11T05:12:39.470Z,7.13
2022-10-11T05:15:24.319Z,6.57
2022-10-11T05:18:09.336Z,9.18
2022-10-11T05:21:03.192Z,7.80
2022-10-11T05:23:49.586Z,7.80
2022-10-11T05:26:34.464Z,7.43
2022-10-11T05:29:19.783Z,9.40
2022-10-11T05:32:05.195Z,7.82
2022-10-11T05:34:50.110Z,7.38
2022-10-11T05:37:35.238Z,6.60
2022-10-11T05:40:20.046Z,15.25
2022-10-11T05:43:05.912Z,8.80
2022-10-11T05:45:50.613Z,6.72
2022-10-11T05:48:36.170Z,10.75
2022-10-11T05:51:21.263Z,5.88
2022-10-11T05:54:06.377Z,8.23
2022-10-11T05:56:51.526Z,7.87
2022-10-11T05:59:36.546Z,10.95
2022-10-11T06:02:21.355Z,7.18
2022-10-11T06:05:06.455Z,8.02
2022-10-11T06:07:51.514Z,13.38
2022-10-11T06:10:38.214Z,7.23
2022-10-11T06:13:23.157Z,7.47
2022-10-11T06:16:08.889Z,8.70
2022-10-11T06:18:54.668Z,6.78
2022-10-11T06:21:39.415Z,8.10
2022-10-11T06:24:24.240Z,9.93
2022-10-11T06:27:09.796Z,12.80
2022-10-11T06:29:54.751Z,9.30
2022-10-11T06:32:39.684Z,7.80
2022-10-11T06:35:24.682Z,9.45
2022-10-11T06:38:09.682Z,10.40
2022-10-11T06:40:54.817Z,12.18
2022-10-11T06:43:39.868Z,11.80
2022-10-11T06:46:27.134Z,9.93
2022-10-11T06:49:12.453Z,9.75
2022-10-11T06:51:57.651Z,9.50
2022-10-11T06:54:44.988Z,9.70
2022-10-11T06:57:30.353Z,11.15
2022-10-11T07:00:15.984Z,9.10
2022-10-11T07:03:01.277Z,8.57
2022-10-11T07:05:46.240Z,13.13
2022-10-11T07:08:31.652Z,9.13
2022-10-11T07:11:19.576Z,10.38
2022-10-11T07:14:07.673Z,10.48
2022-10-11T07:16:52.768Z,11.35
2022-10-11T07:19:37.787Z,10.67
2022-10-11T07:22:23.301Z,11.38
2022-10-11T07:25:08.763Z,10.38
2022-10-11T07:27:53.432Z,11.48
2022-10-11T07:30:40.151Z,13.90
2022-10-11T07:33:25.182Z,11.03
2022-10-11T07:36:11.220Z,13.07
2022-10-11T07:38:56.308Z,22.20
2022-10-11T07:41:45.599Z,19.15
2022-10-11T07:44:31.071Z,23.98
2022-10-11T07:47:15.974Z,18.37
2022-10-11T07:50:01.035Z,22.33
2022-10-11T07:52:46.196Z,21.83
2022-10-11T07:55:34.603Z,21.90
2022-10-11T07:58:19.859Z,23.05
2022-10-11T08:01:05.276Z,15.73
2022-10-11T08:03:50.960Z,25.65
2022-10-11T08:06:36.516Z,20.95
2022-10-11T08:09:21.407Z,22.20
2022-10-11T08:12:06.579Z,25.60
2022-10-11T08:14:54.920Z,28.27
2022-10-11T08:17:39.904Z,21.88
2022-10-11T08:20:24.871Z,26.67
2022-10-11T08:23:10.043Z,26.15
2022-10-11T08:25:57.093Z,23.30
2022-10-11T08:28:42.098Z,23.30
2022-10-11T08:31:27.397Z,23.73
2022-10-11T08:34:12.890Z,20.73
2022-10-11T08:36:58.079Z,29.40
2022-10-11T08:39:43.206Z,22.85
2022-10-11T08:42:34.363Z,27.00
2022-10-11T08:45:40.902Z,24.88
2022-10-11T08:48:50.805Z,24.95
2022-10-11T08:51:42.895Z,28.40
2022-10-11T08:54:49.324Z,25.73
2022-10-11T08:57:37.293Z,22.53
2022-10-11T09:00:23.602Z,25.17
2022-10-11T09:03:24.449Z,29.75
2022-10-11T09:06:29.566Z,26.85
2022-10-11T09:09:36.272Z,34.03
2022-10-11T09:12:48.213Z,25.73
2022-10-11T09:15:48.431Z,28.60
2022-10-11T09:18:47.395Z,31.00
2022-10-11T09:21:46.620Z,27.02
2022-10-11T09:24:55.708Z,31.10
2022-10-11T09:28:03.826Z,26.00
2022-10-11T09:30:52.515Z,27.25
2022-10-11T09:33:47.581Z,26.40
2022-10-11T09:36:54.015Z,28.15
2022-10-11T09:39:49.721Z,31.77
2022-10-11T09:42:34.402Z,28.87
2022-10-11T09:45:21.426Z,30.67
2022-10-11T09:48:07.425Z,29.77
2022-10-11T09:50:56.815Z,30.33
2022-10-11T09:54:03.450Z,30.25
2022-10-11T09:56:48.546Z,30.67
2022-10-11T09:59:35.056Z,27.27
2022-10-11T10:02:22.991Z,28.17
2022-10-11T10:05:10.732Z,33.03
2022-10-11T10:08:05.396Z,27.95
2022-10-11T10:10:59.431Z,30.60
2022-10-11T10:13:52.048Z,31.02
2022-10-11T10:16:37.136Z,32.35
2022-10-11T10:19:23.209Z,27.58
2022-10-11T10:22:18.656Z,32.17
2022-10-11T10:25:07.962Z,32.23
2022-10-11T10:27:58.502Z,27.02
2022-10-11T10:30:54.212Z,25.67
2022-10-11T10:33:39.443Z,30.40
2022-10-11T10:36:34.296Z,28.50
2022-10-11T10:39:30.867Z,24.27
2022-10-11T10:42:19.916Z,28.27
2022-10-11T10:45:12.217Z,30.58
2022-10-11T10:48:15.171Z,22.38
2022-10-11T10:51:11.208Z,23.88
2022-10-11T10:54:25.275Z,28.40
2022-10-11T10:57:17.800Z,29.55
2022-10-11T11:00:16.172Z,25.55
2022-10-11T11:03:15.460Z,27.90
2022-10-11T11:06:09.911Z,24.90
2022-10-11T11:09:05.553Z,30.00
2022-10-11T11:12:09.971Z,25.33
2022-10-11T11:15:01.562Z,28.63
2022-10-11T11:18:07.811Z,23.95
2022-10-11T11:21:15.010Z,24.65
2022-10-11T11:24:16.877Z,27.30
2022-10-11T11:27:09.994Z,22.20
2022-10-11T11:30:36.474Z,24.85
2022-10-11T11:33:38.047Z,23.20
2022-10-11T11:36:40.279Z,27.13
2022-10-11T11:39:26.987Z,26.93
2022-10-11T11:42:17.981Z,22.00
2022-10-11T11:45:15.121Z,18.80
2022-10-11T11:48:03.661Z,17.70
2022-10-11T11:51:07.943Z,19.25
2022-10-11T11:54:29.459Z,21.43
2022-10-11T11:57:35.335Z,29.05
2022-10-11T12:00:27.442Z,18.90
2022-10-11T12:03:20.541Z,21.60
2022-10-11T12:06:14.617Z,17.85
2022-10-11T12:09:07.751Z,24.63
2022-10-11T12:11:59.054Z,26.65
2022-10-11T12:14:44.081Z,19.95
2022-10-11T12:17:28.975Z,19.75
2022-10-11T12:20:26.028Z,12.50
2022-10-11T12:23:29.148Z,14.77
2022-10-11T12:26:32.983Z,9.82
2022-10-11T12:29:36.562Z,12.75
2022-10-11T12:32:27.596Z,13.50
2022-10-11T12:35:31.129Z,10.05
2022-10-11T12:38:33.642Z,7.43
2022-10-11T12:41:18.595Z,9.98
2022-10-11T12:44:22.597Z,9.43
2022-10-11T12:47:39.571Z,7.85
2022-10-11T12:51:03.602Z,13.75
2022-10-11T12:54:25.930Z,10.20
2022-10-11T12:57:46.207Z,10.88
2022-10-11T13:00:41.451Z,16.17
2022-10-11T13:03:57.448Z,12.65
2022-10-11T13:06:48.699Z,13.25
2022-10-11T13:09:39.042Z,10.87
2022-10-11T13:12:26.654Z,13.30
2022-10-11T13:15:16.284Z,12.50
2022-10-11T13:18:02.173Z,10.13
2022-10-11T13:20:47.173Z,10.43
2022-10-11T13:23:40.039Z,8.63
2022-10-11T13:26:27.628Z,11.43
2022-10-11T13:29:23.270Z,14.80
2022-10-11T13:32:14.621Z,6.72
2022-10-11T13:35:14.556Z,11.20
2022-10-11T13:38:00.151Z,10.00
2022-10-11T13:40:50.053Z,9.82
2022-10-11T13:43:36.940Z,5.50
2022-10-11T13:46:26.876Z,7.82
2022-10-11T13:49:39.991Z,6.40
2022-10-11T13:52:25.375Z,11.93
2022-10-11T13:55:29.004Z,6.53
2022-10-11T13:58:23.486Z,7.68
2022-10-11T14:01:22.222Z,8.90
2022-10-11T14:04:11.713Z,12.68
2022-10-11T14:07:02.356Z,8.93
2022-10-11T14:09:48.676Z,10.70
2022-10-11T14:12:39.520Z,11.50
2022-10-11T14:15:28.312Z,8.68
2022-10-11T14:18:33.449Z,11.75
2022-10-11T14:21:30.811Z,7.78
2022-10-11T14:24:17.695Z,7.30
2022-10-11T14:27:05.705Z,11.03
2022-10-11T14:30:19.866Z,13.20
2022-10-11T14:32:59.263Z,9.95
2022-10-11T14:35:44.251Z,10.20
2022-10-11T14:38:29.475Z,10.40
2022-10-11T14:41:14.258Z,8.80
2022-10-11T14:43:59.329Z,12.15
2022-10-11T14:46:46.095Z,8.77
2022-10-11T14:49:33.617Z,7.63
2022-10-11T14:52:19.578Z,5.38
2022-10-11T14:55:04.761Z,5.97
2022-10-11T14:57:50.325Z,7.25
2022-10-11T15:00:36.465Z,8.25
2022-10-11T15:03:21.523Z,4.75
2022-10-11T15:06:21.290Z,8.52
2022-10-11T15:09:07.273Z,9.00
2022-10-11T15:11:54.633Z,6.13
2022-10-11T15:14:39.811Z,7.90
2022-10-11T15:17:24.709Z,9.98
2022-10-11T15:20:27.304Z,8.35
2022-10-11T15:23:12.520Z,4.57
2022-10-11T15:25:57.608Z,8.07
2022-10-11T15:28:43.677Z,4.03
2022-10-11T15:31:28.750Z,6.15
2022-10-11T15:34:14.666Z,9.32
2022-10-11T15:36:59.879Z,7.97
2022-10-11T15:39:44.859Z,7.10
2022-10-11T15:42:29.817Z,7.93
2022-10-11T15:45:16.263Z,7.15
2022-10-11T15:48:01.248Z,9.18
2022-10-11T15:50:46.349Z,9.60
2022-10-11T15:53:32.162Z,5.82
2022-10-11T15:56:18.780Z,7.40
2022-10-11T15:59:03.852Z,7.88
2022-10-11T16:01:48.756Z,6.03
2022-10-11T16:04:33.570Z,10.00
2022-10-11T16:07:18.836Z,9.07
2022-10-11T16:10:04.983Z,15.82
2022-10-11T16:12:50.135Z,19.27
2022-10-11T16:15:40.629Z,12.57
2022-10-11T16:18:25.552Z,11.23
2022-10-11T16:21:12.844Z,13.60
2022-10-11T16:23:57.902Z,10.60
2022-10-11T16:26:43.827Z,10.15
2022-10-11T16:29:28.982Z,5.93
2022-10-11T16:32:14.122Z,10.27
2022-10-11T16:34:59.114Z,9.15
2022-10-11T16:37:44.794Z,8.70
2022-10-11T16:40:30.027Z,9.32
2022-10-11T16:43:15.288Z,11.05
2022-10-11T16:46:00.373Z,15.07
2022-10-11T16:48:45.497Z,10.30
2022-10-11T16:51:30.513Z,13.05
2022-10-11T16:54:20.569Z,13.15
2022-10-11T16:57:05.797Z,15.70
2022-10-11T16:59:50.951Z,11.17
2022-10-11T17:02:36.543Z,11.27
2022-10-11T17:05:21.500Z,10.10
2022-10-11T17:08:06.464Z,10.43
2022-10-11T17:10:57.741Z,8.15
2022-10-11T17:13:44.068Z,8.43
2022-10-11T17:16:29.119Z,10.65
2022-10-11T17:19:15.490Z,17.23
2022-10-11T17:22:00.632Z,9.98
2022-10-11T17:24:45.939Z,10.60
2022-10-11T17:27:31.130Z,11.70
2022-10-11T17:30:15.985Z,9.02
2022-10-11T17:33:00.844Z,12.38
2022-10-11T17:35:46.067Z,11.15
2022-10-11T17:38:30.879Z,12.15
2022-10-11T17:41:16.681Z,9.77
2022-10-11T17:44:02.883Z,8.75
2022-10-11T17:46:48.594Z,7.05
2022-10-11T17:49:33.919Z,7.72
2022-10-11T17:52:19.228Z,8.10
2022-10-11T17:55:05.597Z,9.97
2022-10-11T17:57:50.861Z,10.05
2022-10-11T18:00:36.876Z,13.98
2022-10-11T18:03:21.797Z,7.72
2022-10-11T18:06:09.624Z,10.27
2022-10-11T18:08:55.770Z,10.63
2022-10-11T18:11:40.861Z,13.02
2022-10-11T18:14:25.613Z,11.02
2022-10-11T18:17:10.969Z,11.82
2022-10-11T18:19:56.434Z,11.80
2022-10-11T18:22:42.609Z,9.17
2022-10-11T18:25:27.452Z,15.93
2022-10-11T18:28:12.577Z,12.35
2022-10-11T18:30:58.872Z,12.52
2022-10-11T18:33:45.901Z,11.95
2022-10-11T18:36:31.738Z,9.80
2022-10-11T18:39:17.042Z,9.35
2022-10-11T18:42:04.478Z,15.82
2022-10-11T18:44:49.283Z,10.32
2022-10-11T18:47:34.602Z,18.88
2022-10-11T18:50:20.599Z,9.53
2022-10-11T18:53:06.791Z,8.55
2022-10-11T18:55:57.933Z,9.90
2022-10-11T18:58:45.601Z,10.18
2022-10-11T19:01:33.494Z,14.73
2022-10-11T19:04:19.041Z,9.77
2022-10-11T19:07:04.739Z,9.73
2022-10-11T19:09:49.947Z,10.63
2022-10-11T19:12:35.060Z,11.98
2022-10-11T19:15:19.928Z,10.23
2022-10-11T19:18:05.312Z,14.93
2022-10-11T19:20:50.206Z,13.13
2022-10-11T19:23:42.206Z,12.90
2022-10-11T19:26:31.191Z,8.77
2022-10-11T19:29:21.067Z,9.73
2022-10-11T19:32:06.044Z,9.40
2022-10-11T19:34:51.192Z,8.50
2022-10-11T19:37:36.264Z,9.35
2022-10-11T19:40:21.594Z,8.20
2022-10-11T19:43:06.921Z,11.48
2022-10-11T19:45:58.635Z,12.10
2022-10-11T19:48:44.498Z,12.35
2022-10-11T19:51:34.724Z,9.50
2022-10-11T19:54:19.976Z,11.88
2022-10-11T19:57:05.154Z,14.23
2022-10-11T19:59:50.007Z,9.50
2022-10-11T20:02:34.824Z,11.98
2022-10-11T20:05:19.842Z,10.18
2022-10-11T20:08:05.022Z,9.32
2022-10-11T20:10:53.324Z,12.95
2022-10-11T20:13:39.694Z,11.63
2022-10-11T20:16:27.097Z,13.25
2022-10-11T20:19:11.800Z,21.40
2022-10-11T20:22:00.597Z,11.75
2022-10-11T20:24:45.800Z,12.32
2022-10-11T20:27:31.567Z,13.70
2022-10-11T20:30:17.150Z,12.75
2022-10-11T20:33:02.631Z,11.68
2022-10-11T20:36:04.049Z,11.02
2022-10-11T20:38:50.401Z,8.95
2022-10-11T20:41:39.669Z,10.13
2022-10-11T20:44:24.739Z,13.20
2022-10-11T20:47:09.831Z,13.15
2022-10-11T20:49:54.646Z,12.63
2022-10-11T20:52:39.846Z,13.02
2022-10-11T20:55:24.751Z,13.00
2022-10-11T20:58:09.864Z,10.38
2022-10-11T21:00:55.083Z,10.68
2022-10-11T21:03:41.068Z,11.85
2022-10-11T21:06:28.120Z,12.65
2022-10-11T21:09:15.613Z,11.93
2022-10-11T21:12:02.048Z,9.70
2022-10-11T21:14:47.237Z,12.10
2022-10-11T21:17:32.015Z,12.50
2022-10-11T21:20:17.844Z,7.95
2022-10-11T21:23:02.585Z,10.80
2022-10-11T21:25:47.597Z,11.57
2022-10-11T21:28:32.900Z,12.70
2022-10-11T21:31:19.624Z,10.93
2022-10-11T21:34:06.600Z,10.10
2022-10-11T21:36:51.791Z,8.50
2022-10-11T21:39:36.911Z,12.32
2022-10-11T21:42:25.884Z,12.80
2022-10-11T21:45:13.649Z,13.70
2022-10-11T21:47:58.656Z,13.90
2022-10-11T21:50:43.844Z,10.60
2022-10-11T21:53:28.642Z,14.23
2022-10-11T21:56:13.787Z,9.52
2022-10-11T21:58:58.903Z,11.45
2022-10-11T22:01:44.201Z,15.48
2022-10-11T22:04:29.128Z,10.40
2022-10-11T22:07:14.082Z,11.32
2022-10-11T22:09:59.257Z,14.93
2022-10-11T22:12:44.556Z,10.20
2022-10-11T22:15:33.639Z,11.65
2022-10-11T22:18:19.054Z,11.23
2022-10-11T22:21:13.240Z,11.90
2022-10-11T22:23:58.082Z,12.02
2022-10-11T22:26:43.258Z,15.73
2022-10-11T22:29:33.184Z,19.15
2022-10-11T22:32:19.190Z,14.93
2022-10-11T22:35:04.567Z,18.98
2022-10-11T22:37:52.421Z,11.85
2022-10-11T22:40:39.916Z,16.77
2022-10-11T22:43:24.923Z,11.38
2022-10-11T22:46:10.131Z,14.70
2022-10-11T22:48:55.100Z,18.48
2022-10-11T22:51:40.273Z,14.93
2022-10-11T22:54:24.950Z,13.85
2022-10-11T22:57:10.237Z,13.07
2022-10-11T22:59:55.203Z,12.00
2022-10-11T23:02:40.242Z,11.50
2022-10-11T23:05:25.196Z,18.35
2022-10-11T23:08:10.378Z,11.75
2022-10-11T23:10:55.496Z,11.05
2022-10-11T23:13:40.508Z,9.63
2022-10-11T23:16:25.411Z,8.25
2022-10-11T23:19:10.420Z,8.98
2022-10-11T23:21:55.532Z,11.27
2022-10-11T23:24:40.512Z,9.30
2022-10-11T23:27:25.322Z,12.23
2022-10-11T23:30:11.587Z,15.65
2022-10-11T23:32:56.615Z,9.57
2022-10-11T23:35:41.846Z,12.27
2022-10-11T23:38:26.598Z,8.95
2022-10-11T23:41:11.768Z,10.70
2022-10-11T23:43:57.906Z,10.25
2022-10-11T23:46:42.993Z,12.10
2022-10-11T23:49:27.892Z,8.40
2022-10-11T23:52:13.177Z,11.52
2022-10-11T23:54:58.242Z,10.20
2022-10-11T23:57:43.179Z,9.73
